Chris Hadfield Airport
CYZR : now visible

Airfield :











YOU CAN JOIN US ON...

 
LOGIN :

Register | Disclaimer

   EN    FR    IT 

 









Legend :    VFR   Marginal VFR   IFR   Intensive IFR   Very Intensive IFR
Visi :
Ceiling :
>= 8 km
>= 3000ft
5 to 8 km
1000 to 3000 ft
1500m to 5 km
500 to 1000 ft
800 to 1500m
200 to 500 ft
< 800m
< 200 ft
Symbols :   Thunderstorms  Fog  Heavy snow  Heavy precipitations  Wind > 20 kt






- Airport Elevation : 594 ft
- IATA code : YZR


CYZR - Chris Hadfield

CURRENT METAR :
  • 241100Z AUTO 31014G21KT 9SM OVC025 04/00 A3017 RMK SLP221

EXPIRED METARs :
  • 241036Z AUTO 33016G21KT 9SM OVC025 04/01 A3016 RMK SLP217
  • 241000Z AUTO 34015G20KT 9SM OVC022 05/01 A3015 RMK SLP213
  • 240900Z AUTO 34017G22KT 9SM OVC022 05/01 A3012 RMK SLP205
  • 240834Z AUTO 33013G27KT 9SM OVC024 05/01 A3011 RMK SLP200

TAF TAF CYZR
Valid from the 24 at 08:00 until the 24 at 20:00 UTC


240741Z 2408/2420 34015G25KT P6SM BKN025
TEMPO 2408/2416 OVC020
BECMG 2409/2411 33012KT
FM241600 33010KT P6SM OVC025
TEMPO 2416/2420 P6SM -SHRA OVC020 RMK FCST BASED ON AUTO OBS. NXT FCST BY 241400Z
CZYZ FIR / North America



MET'MAP, your aeronautical weather chart ! - Copyright ORBIFLY December 2007 - Disclaimer

ORBIFLY MET'MAP TEAM :

Programming & Development : Alexandra Zaïnal
Concept & original design : Baudouin d'Aumeries
Assistance for programming : Marc-Olivier Méhu
Technical & hardware support : Manuel Goepfert

Contact : metmap@orbifly.com




SOURCES & CREDITS :

   NOAA       Earth
Advisory